Hauptseite
METAR-TAF:

METAR-TAF

Flughäfen :

Linton-on-Ouse, England

RAF Linton-on-Ouse

Breite: 54-03N, Länge: 001-15W, Höhe: 16 m

Beobachtung

Neuester Wetterbericht von vor 30 Minuten, um 14:50 UTC
Wind 11 kt aus Süd/Südost
Temperatur 20°C
Luftfeuchtigkeit 53%
Luftdruck 1017 hPa
Sichtweite 10 km oder mehr

METAR: EGXU 211450Z AUTO 16011KT 9999 // FEW038/// 20/10 Q1017

Zeit: 16:20 (15:20 UTC)

Prognose

Neuester Wetterbericht von vor 26 Stunden und 2 Minuten, um 13:18 UTC
Gültige Prognose vom 20 um 15 UTC bis 20 um 18 UTC
Wind 8 kt aus West
Sichtweite 10 km oder mehr
keine Wolken unter 1500 m und keine Kumulonimbus oder Gewitterwolken

TAF: EGXU 201318Z 2015/2018 28008KT CAVOK

Wetterbeobachtungen und Prognosen von mehr als 4000 Flughäfen (METAR und TAF Bericht).

Die verfügbaren Stationen werden durch gelbe und rote Markierungen auf der Karte dargestellt.

Führen Sie die Maus auf sie, um den Namen der Station zu sehen.

Darauf klicken, um die Beobachtung von Wetterbeobachtungen und Prognosen zu sehen.

Um die Karte zu ändern : klicken Sie auf den grünen Tasten mit einem schwarzen Kreuz Zum Vergrößern, auf den grünen Button mit einem Gedankenstrich zu verkleinern, oder auf die grünen Pfeile für benachbarte Karten.


METAR-TAF: